sensor_id;sensor_type;location;lat;lon;timestamp;P1;durP1;ratioP1;P2;durP2;ratioP2
74632;SDS011;63139;52.018;8.552;2023-06-10T00:01:09;6.93;;;4.82;;
74632;SDS011;63139;52.018;8.552;2023-06-10T00:03:36;5.85;;;4.63;;
74632;SDS011;63139;52.018;8.552;2023-06-10T00:06:05;6.90;;;4.95;;
74632;SDS011;63139;52.018;8.552;2023-06-10T00:08:33;5.25;;;4.70;;
74632;SDS011;63139;52.018;8.552;2023-06-10T00:11:02;5.55;;;4.57;;
74632;SDS011;63139;52.018;8.552;2023-06-10T00:13:30;5.93;;;4.82;;
74632;SDS011;63139;52.018;8.552;2023-06-10T00:15:58;6.18;;;4.60;;
74632;SDS011;63139;52.018;8.552;2023-06-10T00:18:26;7.47;;;5.38;;
74632;SDS011;63139;52.018;8.552;2023-06-10T00:20:57;10.85;;;6.20;;
74632;SDS011;63139;52.018;8.552;2023-06-10T00:23:29;6.93;;;5.43;;
74632;SDS011;63139;52.018;8.552;2023-06-10T00:25:58;5.43;;;4.90;;
74632;SDS011;63139;52.018;8.552;2023-06-10T00:28:27;5.25;;;4.50;;
74632;SDS011;63139;52.018;8.552;2023-06-10T00:30:55;6.38;;;5.20;;
74632;SDS011;63139;52.018;8.552;2023-06-10T00:33:23;6.97;;;4.75;;
74632;SDS011;63139;52.018;8.552;2023-06-10T00:35:51;6.30;;;4.95;;
74632;SDS011;63139;52.018;8.552;2023-06-10T00:38:20;6.15;;;4.68;;
74632;SDS011;63139;52.018;8.552;2023-06-10T00:40:48;5.90;;;4.70;;
74632;SDS011;63139;52.018;8.552;2023-06-10T00:43:16;6.30;;;5.07;;
74632;SDS011;63139;52.018;8.552;2023-06-10T00:45:46;7.95;;;6.40;;
74632;SDS011;63139;52.018;8.552;2023-06-10T00:48:14;7.40;;;6.55;;
74632;SDS011;63139;52.018;8.552;2023-06-10T00:50:42;7.93;;;6.43;;
74632;SDS011;63139;52.018;8.552;2023-06-10T00:53:10;8.68;;;5.88;;
74632;SDS011;63139;52.018;8.552;2023-06-10T00:55:38;7.00;;;5.50;;
74632;SDS011;63139;52.018;8.552;2023-06-10T00:58:08;6.97;;;5.10;;
74632;SDS011;63139;52.018;8.552;2023-06-10T01:00:36;7.40;;;5.80;;
74632;SDS011;63139;52.018;8.552;2023-06-10T01:03:05;12.43;;;7.55;;
74632;SDS011;63139;52.018;8.552;2023-06-10T01:05:34;10.43;;;6.65;;
74632;SDS011;63139;52.018;8.552;2023-06-10T01:08:03;9.77;;;6.28;;
74632;SDS011;63139;52.018;8.552;2023-06-10T01:10:38;8.85;;;6.10;;
74632;SDS011;63139;52.018;8.552;2023-06-10T01:13:10;6.13;;;5.10;;
74632;SDS011;63139;52.018;8.552;2023-06-10T01:15:40;7.57;;;5.25;;
74632;SDS011;63139;52.018;8.552;2023-06-10T01:18:10;6.95;;;5.65;;
74632;SDS011;63139;52.018;8.552;2023-06-10T01:20:42;7.38;;;5.57;;
74632;SDS011;63139;52.018;8.552;2023-06-10T01:23:14;13.50;;;5.93;;
74632;SDS011;63139;52.018;8.552;2023-06-10T01:25:46;7.72;;;5.78;;
74632;SDS011;63139;52.018;8.552;2023-06-10T01:28:22;7.07;;;5.53;;
74632;SDS011;63139;52.018;8.552;2023-06-10T01:30:55;7.28;;;5.85;;
74632;SDS011;63139;52.018;8.552;2023-06-10T01:33:36;8.32;;;6.20;;
74632;SDS011;63139;52.018;8.552;2023-06-10T01:36:06;8.65;;;6.10;;
74632;SDS011;63139;52.018;8.552;2023-06-10T01:38:38;5.85;;;5.07;;
74632;SDS011;63139;52.018;8.552;2023-06-10T01:41:09;7.70;;;5.00;;
74632;SDS011;63139;52.018;8.552;2023-06-10T01:43:39;6.68;;;5.00;;
74632;SDS011;63139;52.018;8.552;2023-06-10T01:46:07;6.68;;;5.47;;
74632;SDS011;63139;52.018;8.552;2023-06-10T01:48:35;7.25;;;5.78;;
74632;SDS011;63139;52.018;8.552;2023-06-10T01:51:04;6.60;;;4.70;;
74632;SDS011;63139;52.018;8.552;2023-06-10T01:53:32;6.53;;;5.20;;
74632;SDS011;63139;52.018;8.552;2023-06-10T01:56:01;5.85;;;4.80;;
74632;SDS011;63139;52.018;8.552;2023-06-10T01:58:28;7.97;;;5.55;;
74632;SDS011;63139;52.018;8.552;2023-06-10T02:00:56;6.50;;;5.30;;
74632;SDS011;63139;52.018;8.552;2023-06-10T02:03:25;8.38;;;5.10;;
74632;SDS011;63139;52.018;8.552;2023-06-10T02:05:53;6.35;;;5.18;;
74632;SDS011;63139;52.018;8.552;2023-06-10T02:08:21;8.35;;;5.78;;
74632;SDS011;63139;52.018;8.552;2023-06-10T02:10:49;10.90;;;6.47;;
74632;SDS011;63139;52.018;8.552;2023-06-10T02:13:18;7.03;;;5.18;;
74632;SDS011;63139;52.018;8.552;2023-06-10T02:15:50;6.55;;;5.07;;
74632;SDS011;63139;52.018;8.552;2023-06-10T02:18:20;6.75;;;4.82;;
74632;SDS011;63139;52.018;8.552;2023-06-10T02:20:48;5.80;;;4.60;;
74632;SDS011;63139;52.018;8.552;2023-06-10T02:23:16;7.53;;;5.07;;
74632;SDS011;63139;52.018;8.552;2023-06-10T02:25:43;6.30;;;4.78;;
74632;SDS011;63139;52.018;8.552;2023-06-10T02:28:11;9.35;;;5.82;;
74632;SDS011;63139;52.018;8.552;2023-06-10T02:30:40;7.05;;;5.50;;
74632;SDS011;63139;52.018;8.552;2023-06-10T02:33:09;6.45;;;4.57;;
74632;SDS011;63139;52.018;8.552;2023-06-10T02:35:37;6.85;;;5.15;;
74632;SDS011;63139;52.018;8.552;2023-06-10T02:38:06;7.88;;;5.15;;
74632;SDS011;63139;52.018;8.552;2023-06-10T02:40:34;8.70;;;5.50;;
74632;SDS011;63139;52.018;8.552;2023-06-10T02:43:02;5.45;;;4.53;;
74632;SDS011;63139;52.018;8.552;2023-06-10T02:45:31;7.10;;;5.25;;
74632;SDS011;63139;52.018;8.552;2023-06-10T02:48:01;6.05;;;4.30;;
74632;SDS011;63139;52.018;8.552;2023-06-10T02:50:30;6.70;;;4.53;;
74632;SDS011;63139;52.018;8.552;2023-06-10T02:53:13;10.45;;;4.95;;
74632;SDS011;63139;52.018;8.552;2023-06-10T02:55:46;6.68;;;4.95;;
74632;SDS011;63139;52.018;8.552;2023-06-10T02:58:16;7.93;;;5.18;;
74632;SDS011;63139;52.018;8.552;2023-06-10T03:00:44;7.80;;;5.22;;
74632;SDS011;63139;52.018;8.552;2023-06-10T03:03:14;6.78;;;5.10;;
74632;SDS011;63139;52.018;8.552;2023-06-10T03:05:57;7.88;;;5.05;;
74632;SDS011;63139;52.018;8.552;2023-06-10T03:08:26;6.38;;;4.80;;
74632;SDS011;63139;52.018;8.552;2023-06-10T03:10:55;8.05;;;5.57;;
74632;SDS011;63139;52.018;8.552;2023-06-10T03:13:23;9.32;;;5.75;;
74632;SDS011;63139;52.018;8.552;2023-06-10T03:15:51;8.65;;;6.03;;
74632;SDS011;63139;52.018;8.552;2023-06-10T03:18:26;7.28;;;5.43;;
74632;SDS011;63139;52.018;8.552;2023-06-10T03:20:55;6.70;;;5.05;;
74632;SDS011;63139;52.018;8.552;2023-06-10T03:23:25;6.85;;;5.50;;
74632;SDS011;63139;52.018;8.552;2023-06-10T03:25:53;6.53;;;5.25;;
74632;SDS011;63139;52.018;8.552;2023-06-10T03:28:22;11.30;;;5.97;;
74632;SDS011;63139;52.018;8.552;2023-06-10T03:30:50;8.02;;;6.43;;
74632;SDS011;63139;52.018;8.552;2023-06-10T03:33:23;5.68;;;4.97;;
74632;SDS011;63139;52.018;8.552;2023-06-10T03:35:51;6.05;;;5.07;;
74632;SDS011;63139;52.018;8.552;2023-06-10T03:38:19;5.82;;;4.50;;
74632;SDS011;63139;52.018;8.552;2023-06-10T03:40:48;7.15;;;4.57;;
74632;SDS011;63139;52.018;8.552;2023-06-10T03:43:16;7.00;;;4.45;;
74632;SDS011;63139;52.018;8.552;2023-06-10T03:45:44;8.85;;;5.70;;
74632;SDS011;63139;52.018;8.552;2023-06-10T03:48:12;7.43;;;4.85;;
74632;SDS011;63139;52.018;8.552;2023-06-10T03:50:47;8.88;;;4.90;;
74632;SDS011;63139;52.018;8.552;2023-06-10T03:53:17;5.55;;;4.30;;
74632;SDS011;63139;52.018;8.552;2023-06-10T03:55:45;7.13;;;5.20;;
74632;SDS011;63139;52.018;8.552;2023-06-10T03:58:15;8.27;;;5.25;;
74632;SDS011;63139;52.018;8.552;2023-06-10T04:00:44;7.97;;;5.15;;
74632;SDS011;63139;52.018;8.552;2023-06-10T04:03:13;8.90;;;6.47;;
74632;SDS011;63139;52.018;8.552;2023-06-10T04:05:50;7.25;;;5.05;;
74632;SDS011;63139;52.018;8.552;2023-06-10T04:08:18;6.25;;;5.30;;
74632;SDS011;63139;52.018;8.552;2023-06-10T04:10:46;10.38;;;5.85;;
74632;SDS011;63139;52.018;8.552;2023-06-10T04:13:15;9.13;;;6.35;;
74632;SDS011;63139;52.018;8.552;2023-06-10T04:15:52;8.32;;;5.50;;
74632;SDS011;63139;52.018;8.552;2023-06-10T04:18:20;8.75;;;5.88;;
74632;SDS011;63139;52.018;8.552;2023-06-10T04:20:53;8.80;;;5.97;;
74632;SDS011;63139;52.018;8.552;2023-06-10T04:23:21;8.90;;;5.65;;
74632;SDS011;63139;52.018;8.552;2023-06-10T04:25:50;9.38;;;5.57;;
74632;SDS011;63139;52.018;8.552;2023-06-10T04:28:18;9.73;;;5.60;;
74632;SDS011;63139;52.018;8.552;2023-06-10T04:30:46;9.73;;;5.95;;
74632;SDS011;63139;52.018;8.552;2023-06-10T04:33:13;6.78;;;5.00;;
74632;SDS011;63139;52.018;8.552;2023-06-10T04:35:42;8.57;;;6.13;;
74632;SDS011;63139;52.018;8.552;2023-06-10T04:38:13;8.15;;;5.22;;
74632;SDS011;63139;52.018;8.552;2023-06-10T04:40:42;8.23;;;5.75;;
74632;SDS011;63139;52.018;8.552;2023-06-10T04:43:12;8.18;;;5.05;;
74632;SDS011;63139;52.018;8.552;2023-06-10T04:45:42;11.00;;;4.95;;
74632;SDS011;63139;52.018;8.552;2023-06-10T04:48:11;6.03;;;4.28;;
74632;SDS011;63139;52.018;8.552;2023-06-10T04:50:39;8.63;;;4.82;;
74632;SDS011;63139;52.018;8.552;2023-06-10T04:53:07;6.80;;;4.38;;
74632;SDS011;63139;52.018;8.552;2023-06-10T04:55:38;5.72;;;4.35;;
74632;SDS011;63139;52.018;8.552;2023-06-10T04:58:06;6.18;;;4.63;;
74632;SDS011;63139;52.018;8.552;2023-06-10T05:00:34;7.65;;;4.53;;
74632;SDS011;63139;52.018;8.552;2023-06-10T05:03:02;8.10;;;4.78;;
74632;SDS011;63139;52.018;8.552;2023-06-10T05:05:30;7.45;;;4.40;;
74632;SDS011;63139;52.018;8.552;2023-06-10T05:07:58;6.07;;;4.85;;
74632;SDS011;63139;52.018;8.552;2023-06-10T05:10:25;7.43;;;5.10;;
74632;SDS011;63139;52.018;8.552;2023-06-10T05:12:55;7.78;;;4.03;;
74632;SDS011;63139;52.018;8.552;2023-06-10T05:15:23;8.68;;;4.57;;
74632;SDS011;63139;52.018;8.552;2023-06-10T05:17:50;7.43;;;4.28;;
74632;SDS011;63139;52.018;8.552;2023-06-10T05:20:19;6.35;;;3.90;;
74632;SDS011;63139;52.018;8.552;2023-06-10T05:22:47;4.88;;;3.92;;
74632;SDS011;63139;52.018;8.552;2023-06-10T05:25:14;6.05;;;4.03;;
74632;SDS011;63139;52.018;8.552;2023-06-10T05:27:42;7.30;;;4.10;;
74632;SDS011;63139;52.018;8.552;2023-06-10T05:30:12;7.85;;;4.95;;
74632;SDS011;63139;52.018;8.552;2023-06-10T05:32:40;5.45;;;4.00;;
74632;SDS011;63139;52.018;8.552;2023-06-10T05:35:08;5.90;;;4.05;;
74632;SDS011;63139;52.018;8.552;2023-06-10T05:37:36;5.90;;;4.10;;
74632;SDS011;63139;52.018;8.552;2023-06-10T05:40:05;5.63;;;4.40;;
74632;SDS011;63139;52.018;8.552;2023-06-10T05:42:33;7.47;;;3.83;;
74632;SDS011;63139;52.018;8.552;2023-06-10T05:45:02;4.95;;;3.78;;
74632;SDS011;63139;52.018;8.552;2023-06-10T05:47:31;8.55;;;4.75;;
74632;SDS011;63139;52.018;8.552;2023-06-10T05:49:59;6.38;;;4.15;;
74632;SDS011;63139;52.018;8.552;2023-06-10T05:52:27;7.35;;;4.30;;
74632;SDS011;63139;52.018;8.552;2023-06-10T05:54:55;4.88;;;3.85;;
74632;SDS011;63139;52.018;8.552;2023-06-10T05:57:22;7.40;;;4.47;;
74632;SDS011;63139;52.018;8.552;2023-06-10T05:59:50;4.70;;;4.03;;
74632;SDS011;63139;52.018;8.552;2023-06-10T06:02:18;9.52;;;4.65;;
74632;SDS011;63139;52.018;8.552;2023-06-10T06:04:47;5.78;;;3.88;;
74632;SDS011;63139;52.018;8.552;2023-06-10T06:07:15;7.50;;;4.20;;
74632;SDS011;63139;52.018;8.552;2023-06-10T06:09:43;6.35;;;4.03;;
74632;SDS011;63139;52.018;8.552;2023-06-10T06:12:10;7.78;;;4.82;;
74632;SDS011;63139;52.018;8.552;2023-06-10T06:14:38;8.63;;;3.92;;
74632;SDS011;63139;52.018;8.552;2023-06-10T06:17:06;5.18;;;3.58;;
74632;SDS011;63139;52.018;8.552;2023-06-10T06:19:35;6.95;;;3.80;;
74632;SDS011;63139;52.018;8.552;2023-06-10T06:22:04;6.85;;;3.83;;
74632;SDS011;63139;52.018;8.552;2023-06-10T06:24:32;7.22;;;4.07;;
74632;SDS011;63139;52.018;8.552;2023-06-10T06:27:00;9.70;;;4.20;;
74632;SDS011;63139;52.018;8.552;2023-06-10T06:29:28;6.95;;;4.03;;
74632;SDS011;63139;52.018;8.552;2023-06-10T06:31:57;7.30;;;4.15;;
74632;SDS011;63139;52.018;8.552;2023-06-10T06:34:25;6.55;;;3.75;;
74632;SDS011;63139;52.018;8.552;2023-06-10T06:36:53;5.82;;;4.18;;
74632;SDS011;63139;52.018;8.552;2023-06-10T06:39:23;6.57;;;4.13;;
74632;SDS011;63139;52.018;8.552;2023-06-10T06:41:51;8.05;;;3.83;;
74632;SDS011;63139;52.018;8.552;2023-06-10T06:44:25;11.73;;;4.15;;
74632;SDS011;63139;52.018;8.552;2023-06-10T06:46:53;6.32;;;4.18;;
74632;SDS011;63139;52.018;8.552;2023-06-10T06:49:21;8.25;;;3.90;;
74632;SDS011;63139;52.018;8.552;2023-06-10T06:51:49;6.05;;;3.95;;
74632;SDS011;63139;52.018;8.552;2023-06-10T06:54:17;8.07;;;4.00;;
74632;SDS011;63139;52.018;8.552;2023-06-10T06:56:46;11.02;;;4.20;;
74632;SDS011;63139;52.018;8.552;2023-06-10T06:59:13;6.32;;;3.88;;
74632;SDS011;63139;52.018;8.552;2023-06-10T07:01:42;6.22;;;4.13;;
74632;SDS011;63139;52.018;8.552;2023-06-10T07:04:10;10.13;;;4.30;;
74632;SDS011;63139;52.018;8.552;2023-06-10T07:06:38;9.45;;;4.10;;
74632;SDS011;63139;52.018;8.552;2023-06-10T07:09:06;5.50;;;3.78;;
74632;SDS011;63139;52.018;8.552;2023-06-10T07:11:35;8.82;;;4.03;;
74632;SDS011;63139;52.018;8.552;2023-06-10T07:14:04;8.45;;;3.97;;
74632;SDS011;63139;52.018;8.552;2023-06-10T07:16:32;6.07;;;4.07;;
74632;SDS011;63139;52.018;8.552;2023-06-10T07:19:00;4.47;;;3.60;;
74632;SDS011;63139;52.018;8.552;2023-06-10T07:21:31;7.07;;;3.75;;
74632;SDS011;63139;52.018;8.552;2023-06-10T07:24:00;5.72;;;3.65;;
74632;SDS011;63139;52.018;8.552;2023-06-10T07:26:28;4.60;;;3.60;;
74632;SDS011;63139;52.018;8.552;2023-06-10T07:28:55;5.13;;;3.22;;
74632;SDS011;63139;52.018;8.552;2023-06-10T07:31:25;6.43;;;4.00;;
74632;SDS011;63139;52.018;8.552;2023-06-10T07:33:52;4.97;;;3.63;;
74632;SDS011;63139;52.018;8.552;2023-06-10T07:36:20;5.05;;;3.80;;
74632;SDS011;63139;52.018;8.552;2023-06-10T07:38:48;7.15;;;3.90;;
74632;SDS011;63139;52.018;8.552;2023-06-10T07:41:16;5.97;;;3.90;;
74632;SDS011;63139;52.018;8.552;2023-06-10T07:43:44;7.72;;;4.28;;
74632;SDS011;63139;52.018;8.552;2023-06-10T07:46:11;6.18;;;4.22;;
74632;SDS011;63139;52.018;8.552;2023-06-10T07:48:41;6.40;;;4.32;;
74632;SDS011;63139;52.018;8.552;2023-06-10T07:51:08;6.88;;;4.07;;
74632;SDS011;63139;52.018;8.552;2023-06-10T07:53:36;8.48;;;4.50;;
74632;SDS011;63139;52.018;8.552;2023-06-10T07:56:04;6.97;;;3.78;;
74632;SDS011;63139;52.018;8.552;2023-06-10T07:58:32;6.93;;;4.38;;
74632;SDS011;63139;52.018;8.552;2023-06-10T08:00:59;7.90;;;3.88;;
74632;SDS011;63139;52.018;8.552;2023-06-10T08:03:27;4.88;;;3.88;;
74632;SDS011;63139;52.018;8.552;2023-06-10T08:05:56;9.40;;;3.83;;
74632;SDS011;63139;52.018;8.552;2023-06-10T08:08:24;7.68;;;4.03;;
74632;SDS011;63139;52.018;8.552;2023-06-10T08:10:52;8.38;;;4.35;;
74632;SDS011;63139;52.018;8.552;2023-06-10T08:13:20;8.07;;;4.13;;
74632;SDS011;63139;52.018;8.552;2023-06-10T08:15:48;11.10;;;4.50;;
74632;SDS011;63139;52.018;8.552;2023-06-10T08:18:17;6.43;;;4.10;;
74632;SDS011;63139;52.018;8.552;2023-06-10T08:20:44;6.32;;;4.28;;
74632;SDS011;63139;52.018;8.552;2023-06-10T08:23:13;7.55;;;3.95;;
74632;SDS011;63139;52.018;8.552;2023-06-10T08:25:42;6.30;;;3.65;;
74632;SDS011;63139;52.018;8.552;2023-06-10T08:28:09;6.95;;;4.22;;
74632;SDS011;63139;52.018;8.552;2023-06-10T08:30:37;5.70;;;3.72;;
74632;SDS011;63139;52.018;8.552;2023-06-10T08:33:05;10.43;;;4.28;;
74632;SDS011;63139;52.018;8.552;2023-06-10T08:35:33;5.43;;;3.78;;
74632;SDS011;63139;52.018;8.552;2023-06-10T08:38:01;8.98;;;4.00;;
74632;SDS011;63139;52.018;8.552;2023-06-10T08:40:30;8.70;;;4.13;;
74632;SDS011;63139;52.018;8.552;2023-06-10T08:43:00;7.60;;;3.83;;
74632;SDS011;63139;52.018;8.552;2023-06-10T08:45:34;7.78;;;3.70;;
74632;SDS011;63139;52.018;8.552;2023-06-10T08:48:03;5.65;;;4.10;;
74632;SDS011;63139;52.018;8.552;2023-06-10T08:50:34;5.80;;;4.03;;
74632;SDS011;63139;52.018;8.552;2023-06-10T08:53:04;7.22;;;3.92;;
74632;SDS011;63139;52.018;8.552;2023-06-10T08:55:35;10.23;;;4.03;;
74632;SDS011;63139;52.018;8.552;2023-06-10T08:58:05;9.30;;;3.78;;
74632;SDS011;63139;52.018;8.552;2023-06-10T09:00:33;4.68;;;3.50;;
74632;SDS011;63139;52.018;8.552;2023-06-10T09:03:02;5.28;;;3.75;;
74632;SDS011;63139;52.018;8.552;2023-06-10T09:05:35;5.25;;;3.45;;
74632;SDS011;63139;52.018;8.552;2023-06-10T09:08:04;6.00;;;3.60;;
74632;SDS011;63139;52.018;8.552;2023-06-10T09:10:35;5.80;;;3.80;;
74632;SDS011;63139;52.018;8.552;2023-06-10T09:13:02;4.65;;;3.78;;
74632;SDS011;63139;52.018;8.552;2023-06-10T09:15:30;5.80;;;3.58;;
74632;SDS011;63139;52.018;8.552;2023-06-10T09:17:58;6.47;;;3.58;;
74632;SDS011;63139;52.018;8.552;2023-06-10T09:20:26;9.40;;;4.00;;
74632;SDS011;63139;52.018;8.552;2023-06-10T09:22:54;6.88;;;3.72;;
74632;SDS011;63139;52.018;8.552;2023-06-10T09:25:33;7.93;;;4.00;;
74632;SDS011;63139;52.018;8.552;2023-06-10T09:28:04;5.85;;;3.72;;
74632;SDS011;63139;52.018;8.552;2023-06-10T09:30:32;9.13;;;3.80;;
74632;SDS011;63139;52.018;8.552;2023-06-10T09:33:01;6.05;;;4.20;;
74632;SDS011;63139;52.018;8.552;2023-06-10T09:35:30;7.68;;;4.05;;
74632;SDS011;63139;52.018;8.552;2023-06-10T09:37:58;6.70;;;3.60;;
74632;SDS011;63139;52.018;8.552;2023-06-10T09:40:28;5.65;;;3.85;;
74632;SDS011;63139;52.018;8.552;2023-06-10T09:42:58;5.80;;;3.88;;
74632;SDS011;63139;52.018;8.552;2023-06-10T09:45:29;4.05;;;3.65;;
74632;SDS011;63139;52.018;8.552;2023-06-10T09:47:58;6.20;;;4.03;;
74632;SDS011;63139;52.018;8.552;2023-06-10T09:50:26;6.97;;;4.03;;
74632;SDS011;63139;52.018;8.552;2023-06-10T09:52:54;5.72;;;4.13;;
74632;SDS011;63139;52.018;8.552;2023-06-10T09:55:22;6.20;;;3.67;;
74632;SDS011;63139;52.018;8.552;2023-06-10T09:57:52;6.68;;;3.58;;
74632;SDS011;63139;52.018;8.552;2023-06-10T10:00:22;6.40;;;3.60;;
74632;SDS011;63139;52.018;8.552;2023-06-10T10:02:52;5.03;;;4.05;;
74632;SDS011;63139;52.018;8.552;2023-06-10T10:05:21;5.63;;;3.58;;
74632;SDS011;63139;52.018;8.552;2023-06-10T10:07:50;6.38;;;4.05;;
74632;SDS011;63139;52.018;8.552;2023-06-10T10:10:19;6.85;;;4.07;;
74632;SDS011;63139;52.018;8.552;2023-06-10T10:12:48;5.07;;;4.00;;
74632;SDS011;63139;52.018;8.552;2023-06-10T10:15:20;7.40;;;4.20;;
74632;SDS011;63139;52.018;8.552;2023-06-10T10:17:52;9.50;;;4.35;;
74632;SDS011;63139;52.018;8.552;2023-06-10T10:20:24;9.05;;;4.45;;
74632;SDS011;63139;52.018;8.552;2023-06-10T10:22:56;5.88;;;4.25;;
74632;SDS011;63139;52.018;8.552;2023-06-10T10:25:27;6.45;;;4.15;;
74632;SDS011;63139;52.018;8.552;2023-06-10T10:27:59;7.72;;;4.45;;
74632;SDS011;63139;52.018;8.552;2023-06-10T10:30:35;5.43;;;3.90;;
74632;SDS011;63139;52.018;8.552;2023-06-10T10:33:08;5.97;;;4.15;;
74632;SDS011;63139;52.018;8.552;2023-06-10T10:35:40;7.55;;;4.13;;
74632;SDS011;63139;52.018;8.552;2023-06-10T10:38:09;6.45;;;4.30;;
74632;SDS011;63139;52.018;8.552;2023-06-10T10:40:37;5.82;;;4.15;;
74632;SDS011;63139;52.018;8.552;2023-06-10T10:43:06;6.40;;;4.20;;
74632;SDS011;63139;52.018;8.552;2023-06-10T10:45:36;5.93;;;4.03;;
74632;SDS011;63139;52.018;8.552;2023-06-10T10:48:05;7.18;;;4.38;;
74632;SDS011;63139;52.018;8.552;2023-06-10T10:50:38;6.38;;;4.75;;
74632;SDS011;63139;52.018;8.552;2023-06-10T10:53:08;8.68;;;4.53;;
74632;SDS011;63139;52.018;8.552;2023-06-10T10:55:36;9.77;;;4.60;;
74632;SDS011;63139;52.018;8.552;2023-06-10T10:58:04;14.27;;;4.93;;
74632;SDS011;63139;52.018;8.552;2023-06-10T11:00:34;8.82;;;4.70;;
74632;SDS011;63139;52.018;8.552;2023-06-10T11:03:08;4.35;;;3.75;;
74632;SDS011;63139;52.018;8.552;2023-06-10T11:05:43;6.35;;;4.20;;
74632;SDS011;63139;52.018;8.552;2023-06-10T11:08:15;6.32;;;3.80;;
74632;SDS011;63139;52.018;8.552;2023-06-10T11:11:16;9.45;;;3.83;;
74632;SDS011;63139;52.018;8.552;2023-06-10T11:13:57;7.40;;;3.70;;
74632;SDS011;63139;52.018;8.552;2023-06-10T11:16:27;5.22;;;3.70;;
74632;SDS011;63139;52.018;8.552;2023-06-10T11:18:57;5.13;;;3.80;;
74632;SDS011;63139;52.018;8.552;2023-06-10T11:21:24;5.55;;;4.30;;
74632;SDS011;63139;52.018;8.552;2023-06-10T11:23:57;6.13;;;4.15;;
74632;SDS011;63139;52.018;8.552;2023-06-10T11:26:29;4.70;;;3.90;;
74632;SDS011;63139;52.018;8.552;2023-06-10T11:31:38;7.05;;;3.97;;
74632;SDS011;63139;52.018;8.552;2023-06-10T11:34:13;4.43;;;3.90;;
74632;SDS011;63139;52.018;8.552;2023-06-10T11:36:41;7.65;;;4.50;;
74632;SDS011;63139;52.018;8.552;2023-06-10T11:39:12;4.60;;;3.90;;
74632;SDS011;63139;52.018;8.552;2023-06-10T11:41:40;6.05;;;4.00;;
74632;SDS011;63139;52.018;8.552;2023-06-10T11:44:08;5.68;;;4.22;;
74632;SDS011;63139;52.018;8.552;2023-06-10T11:46:37;7.10;;;4.10;;
74632;SDS011;63139;52.018;8.552;2023-06-10T11:49:05;6.18;;;4.32;;
74632;SDS011;63139;52.018;8.552;2023-06-10T11:51:35;5.25;;;4.30;;
74632;SDS011;63139;52.018;8.552;2023-06-10T11:54:05;5.70;;;4.15;;
74632;SDS011;63139;52.018;8.552;2023-06-10T11:56:35;5.20;;;4.50;;
74632;SDS011;63139;52.018;8.552;2023-06-10T11:59:03;7.25;;;4.30;;
74632;SDS011;63139;52.018;8.552;2023-06-10T12:01:34;10.20;;;4.35;;
74632;SDS011;63139;52.018;8.552;2023-06-10T12:04:08;6.95;;;4.03;;
74632;SDS011;63139;52.018;8.552;2023-06-10T12:06:39;7.18;;;4.50;;
74632;SDS011;63139;52.018;8.552;2023-06-10T12:09:13;5.22;;;3.60;;
74632;SDS011;63139;52.018;8.552;2023-06-10T12:11:55;4.47;;;4.05;;
74632;SDS011;63139;52.018;8.552;2023-06-10T12:17:20;8.98;;;4.88;;
74632;SDS011;63139;52.018;8.552;2023-06-10T12:19:49;7.00;;;4.53;;
74632;SDS011;63139;52.018;8.552;2023-06-10T12:22:18;10.27;;;4.40;;
74632;SDS011;63139;52.018;8.552;2023-06-10T12:24:57;5.68;;;4.30;;
74632;SDS011;63139;52.018;8.552;2023-06-10T12:27:27;6.55;;;4.50;;
74632;SDS011;63139;52.018;8.552;2023-06-10T12:29:58;7.97;;;5.13;;
74632;SDS011;63139;52.018;8.552;2023-06-10T12:32:36;6.65;;;4.32;;
74632;SDS011;63139;52.018;8.552;2023-06-10T12:35:06;7.85;;;4.50;;
74632;SDS011;63139;52.018;8.552;2023-06-10T12:37:37;9.13;;;5.25;;
74632;SDS011;63139;52.018;8.552;2023-06-10T12:40:08;9.68;;;4.82;;
74632;SDS011;63139;52.018;8.552;2023-06-10T12:42:37;7.40;;;5.20;;
74632;SDS011;63139;52.018;8.552;2023-06-10T12:45:06;5.88;;;4.55;;
74632;SDS011;63139;52.018;8.552;2023-06-10T12:47:37;8.65;;;4.60;;
74632;SDS011;63139;52.018;8.552;2023-06-10T12:50:06;10.25;;;4.55;;
74632;SDS011;63139;52.018;8.552;2023-06-10T12:52:38;7.28;;;4.78;;
74632;SDS011;63139;52.018;8.552;2023-06-10T12:55:07;6.43;;;4.53;;
74632;SDS011;63139;52.018;8.552;2023-06-10T12:57:36;5.35;;;4.35;;
74632;SDS011;63139;52.018;8.552;2023-06-10T13:00:04;9.40;;;5.00;;
74632;SDS011;63139;52.018;8.552;2023-06-10T13:02:35;6.40;;;4.40;;
74632;SDS011;63139;52.018;8.552;2023-06-10T13:05:03;5.82;;;4.40;;
74632;SDS011;63139;52.018;8.552;2023-06-10T13:07:31;7.38;;;4.60;;
74632;SDS011;63139;52.018;8.552;2023-06-10T13:10:00;8.40;;;4.55;;
74632;SDS011;63139;52.018;8.552;2023-06-10T13:12:28;7.82;;;4.30;;
74632;SDS011;63139;52.018;8.552;2023-06-10T13:15:13;6.82;;;4.43;;
74632;SDS011;63139;52.018;8.552;2023-06-10T13:17:42;6.82;;;4.03;;
74632;SDS011;63139;52.018;8.552;2023-06-10T13:20:10;6.45;;;4.10;;
74632;SDS011;63139;52.018;8.552;2023-06-10T13:22:38;6.78;;;3.72;;
74632;SDS011;63139;52.018;8.552;2023-06-10T13:25:07;6.97;;;4.25;;
74632;SDS011;63139;52.018;8.552;2023-06-10T13:27:37;8.05;;;4.25;;
74632;SDS011;63139;52.018;8.552;2023-06-10T13:30:05;5.25;;;4.20;;
74632;SDS011;63139;52.018;8.552;2023-06-10T13:32:35;6.15;;;4.05;;
74632;SDS011;63139;52.018;8.552;2023-06-10T13:35:03;5.57;;;4.60;;
74632;SDS011;63139;52.018;8.552;2023-06-10T13:37:31;10.07;;;4.65;;
74632;SDS011;63139;52.018;8.552;2023-06-10T13:40:00;6.95;;;4.30;;
74632;SDS011;63139;52.018;8.552;2023-06-10T13:42:30;6.70;;;4.63;;
74632;SDS011;63139;52.018;8.552;2023-06-10T13:44:58;6.35;;;4.10;;
74632;SDS011;63139;52.018;8.552;2023-06-10T13:47:26;5.07;;;4.30;;
74632;SDS011;63139;52.018;8.552;2023-06-10T13:49:54;6.78;;;4.80;;
74632;SDS011;63139;52.018;8.552;2023-06-10T13:52:22;5.47;;;4.57;;
74632;SDS011;63139;52.018;8.552;2023-06-10T13:54:50;8.68;;;4.97;;
74632;SDS011;63139;52.018;8.552;2023-06-10T13:57:17;9.55;;;4.90;;
74632;SDS011;63139;52.018;8.552;2023-06-10T13:59:47;7.22;;;5.03;;
74632;SDS011;63139;52.018;8.552;2023-06-10T14:02:14;5.30;;;4.80;;
74632;SDS011;63139;52.018;8.552;2023-06-10T14:04:43;6.50;;;5.03;;
74632;SDS011;63139;52.018;8.552;2023-06-10T14:07:11;6.25;;;4.50;;
74632;SDS011;63139;52.018;8.552;2023-06-10T14:09:41;6.72;;;5.00;;
74632;SDS011;63139;52.018;8.552;2023-06-10T14:12:10;7.63;;;4.90;;
74632;SDS011;63139;52.018;8.552;2023-06-10T14:14:39;8.40;;;5.07;;
74632;SDS011;63139;52.018;8.552;2023-06-10T14:17:08;7.35;;;5.45;;
74632;SDS011;63139;52.018;8.552;2023-06-10T14:19:35;7.93;;;5.72;;
74632;SDS011;63139;52.018;8.552;2023-06-10T14:22:03;9.95;;;6.15;;
74632;SDS011;63139;52.018;8.552;2023-06-10T14:24:33;7.50;;;5.78;;
74632;SDS011;63139;52.018;8.552;2023-06-10T14:27:02;6.40;;;5.30;;
74632;SDS011;63139;52.018;8.552;2023-06-10T14:29:30;7.68;;;6.70;;
74632;SDS011;63139;52.018;8.552;2023-06-10T14:31:59;5.95;;;5.10;;
74632;SDS011;63139;52.018;8.552;2023-06-10T14:34:31;8.15;;;5.38;;
74632;SDS011;63139;52.018;8.552;2023-06-10T14:37:00;6.43;;;4.90;;
74632;SDS011;63139;52.018;8.552;2023-06-10T14:39:29;8.48;;;5.38;;
74632;SDS011;63139;52.018;8.552;2023-06-10T14:41:57;5.32;;;4.82;;
74632;SDS011;63139;52.018;8.552;2023-06-10T14:44:25;8.13;;;5.60;;
74632;SDS011;63139;52.018;8.552;2023-06-10T14:46:53;5.50;;;5.00;;
74632;SDS011;63139;52.018;8.552;2023-06-10T14:49:21;7.90;;;5.72;;
74632;SDS011;63139;52.018;8.552;2023-06-10T14:51:50;11.35;;;6.30;;
74632;SDS011;63139;52.018;8.552;2023-06-10T14:54:18;9.90;;;6.15;;
74632;SDS011;63139;52.018;8.552;2023-06-10T14:56:46;7.50;;;5.80;;
74632;SDS011;63139;52.018;8.552;2023-06-10T14:59:13;6.93;;;5.35;;
74632;SDS011;63139;52.018;8.552;2023-06-10T15:01:41;7.22;;;5.80;;
74632;SDS011;63139;52.018;8.552;2023-06-10T15:04:11;6.32;;;5.68;;
74632;SDS011;63139;52.018;8.552;2023-06-10T15:06:39;8.68;;;5.72;;